Time;durP1;ratioP1;P1;durP2;ratioP2;P2;SDS_P1;SDS_P2;PMS_P1;PMS_P2;Temp;Humidity;BMP_temperature;BMP_pressure;BME280_temperature;BME280_humidity;BME280_pressure;Samples;Min_cycle;Max_cycle;Signal;HPM_P1;HPM_P2
2021/12/26 00:01:09;;;;;;;1.73;1.63;;;;;;;-2.60;47.68;98064.63;3497798;28;20468;-75
2021/12/26 00:02:50;;;;;;;2.60;1.80;;;;;;;-2.59;47.44;98071.47;3498111;28;20047;-74
2021/12/26 00:04:32;;;;;;;2.20;1.70;;;;;;;-2.57;47.86;98067.75;3505157;28;20036;-75
2021/12/26 00:06:17;;;;;;;1.98;1.73;;;;;;;-2.58;47.92;98066.13;3499730;28;20036;-74
2021/12/26 00:07:57;;;;;;;3.90;2.03;;;;;;;-2.58;47.75;98067.88;3505524;28;20036;-77
2021/12/26 00:09:38;;;;;;;3.55;1.85;;;;;;;-2.61;47.93;98055.16;3504742;28;20130;-74
2021/12/26 00:11:19;;;;;;;2.33;1.60;;;;;;;-2.62;47.89;98049.13;3487423;28;20516;-77
2021/12/26 00:13:00;;;;;;;2.80;1.52;;;;;;;-2.66;47.92;98069.47;3496754;28;20040;-75
2021/12/26 00:14:41;;;;;;;2.63;1.52;;;;;;;-2.71;48.11;98048.25;3501595;28;20414;-74
2021/12/26 00:16:23;;;;;;;1.85;1.67;;;;;;;-2.75;48.12;98046.09;3501468;28;20089;-76
2021/12/26 00:18:04;;;;;;;5.82;2.20;;;;;;;-2.76;48.29;98062.69;3504143;28;20506;-77
2021/12/26 00:19:47;;;;;;;2.40;1.85;;;;;;;-2.78;48.21;98065.47;3488488;28;20060;-76
2021/12/26 00:21:31;;;;;;;2.53;1.50;;;;;;;-2.82;48.19;98051.06;3497269;28;20033;-77
2021/12/26 00:23:12;;;;;;;1.95;1.65;;;;;;;-2.78;48.03;98059.44;3502797;28;20406;-79
2021/12/26 00:24:53;;;;;;;1.92;1.70;;;;;;;-2.74;48.44;98072.00;3485338;28;20033;-78
2021/12/26 00:26:35;;;;;;;3.28;1.85;;;;;;;-2.71;48.26;98083.91;3483714;28;20037;-76
2021/12/26 00:28:18;;;;;;;1.88;1.65;;;;;;;-2.69;48.33;98072.38;3492121;28;20040;-77
2021/12/26 00:29:59;;;;;;;1.75;1.65;;;;;;;-2.68;48.33;98076.63;3505043;28;20041;-76
2021/12/26 00:31:43;;;;;;;2.25;1.42;;;;;;;-2.67;48.15;98067.81;3480202;28;20045;-78
2021/12/26 00:33:25;;;;;;;4.68;1.95;;;;;;;-2.68;48.17;98075.81;3504403;28;20178;-79
2021/12/26 00:35:11;;;;;;;2.53;1.55;;;;;;;-2.63;48.37;98077.00;3509392;28;20039;-77
2021/12/26 00:36:52;;;;;;;3.03;2.05;;;;;;;-2.59;48.35;98064.47;3510078;28;20375;-78
2021/12/26 00:38:35;;;;;;;1.60;1.50;;;;;;;-2.58;48.44;98068.72;3494820;28;20032;-77
2021/12/26 00:40:19;;;;;;;1.50;1.40;;;;;;;-2.55;48.57;98065.81;3502778;28;20478;-78
2021/12/26 00:42:03;;;;;;;2.72;1.80;;;;;;;-2.53;48.53;98060.41;3492866;28;20047;-78
2021/12/26 00:43:45;;;;;;;4.88;1.85;;;;;;;-2.53;48.53;98063.03;3494914;28;20391;-78
2021/12/26 00:45:30;;;;;;;2.28;1.90;;;;;;;-2.50;48.80;98067.97;3490643;28;20411;-78
2021/12/26 00:47:16;;;;;;;8.25;2.00;;;;;;;-2.54;48.73;98064.81;3494864;28;20430;-78
2021/12/26 00:49:00;;;;;;;1.73;1.55;;;;;;;-2.54;48.81;98061.41;3505998;28;20521;-77
2021/12/26 00:50:42;;;;;;;2.15;1.45;;;;;;;-2.54;48.59;98069.22;3495245;28;20048;-79
2021/12/26 00:52:33;;;;;;;3.72;1.92;;;;;;;-2.58;48.86;98054.84;3485411;28;20033;-78
2021/12/26 00:54:14;;;;;;;2.53;1.83;;;;;;;-2.46;48.80;98069.28;3504291;28;20042;-78
2021/12/26 00:56:00;;;;;;;2.67;2.00;;;;;;;-2.44;48.57;98062.13;3510055;28;20499;-78
2021/12/26 00:57:43;;;;;;;3.03;1.70;;;;;;;-2.39;48.89;98059.88;3477241;28;20598;-77
2021/12/26 00:59:27;;;;;;;1.70;1.60;;;;;;;-2.33;48.77;98054.03;3503563;28;20072;-77
2021/12/26 01:01:08;;;;;;;5.32;2.65;;;;;;;-2.27;48.94;98045.63;3490710;28;20453;-77
2021/12/26 01:02:50;;;;;;;1.92;1.63;;;;;;;-2.22;48.44;98051.19;3490290;28;20473;-75
2021/12/26 01:04:33;;;;;;;2.10;1.40;;;;;;;-2.22;48.83;98048.59;3476289;28;20439;-78
2021/12/26 01:06:15;;;;;;;3.22;1.80;;;;;;;-2.20;48.69;98044.00;3502596;28;20047;-75
2021/12/26 01:08:01;;;;;;;2.33;1.38;;;;;;;-2.21;48.88;98036.34;3493517;28;20032;-77
2021/12/26 01:09:49;;;;;;;4.18;1.83;;;;;;;-2.18;48.86;98032.63;3493066;28;20459;-76
2021/12/26 01:11:39;;;;;;;2.80;2.03;;;;;;;-2.18;48.83;98027.41;3492601;28;20131;-76
2021/12/26 01:13:39;;;;;;;2.25;1.65;;;;;;;-2.12;48.43;98045.03;3492162;28;20071;-75
2021/12/26 01:15:29;;;;;;;1.75;1.65;;;;;;;-2.12;48.66;98019.75;3505147;28;20105;-75
2021/12/26 01:17:27;;;;;;;3.03;1.83;;;;;;;-2.11;48.32;98034.47;3494258;28;20044;-75
2021/12/26 01:19:25;;;;;;;2.22;1.67;;;;;;;-2.11;48.27;98031.03;3508137;28;20057;-77
2021/12/26 01:21:20;;;;;;;2.28;1.77;;;;;;;-2.11;48.84;98028.44;3494623;28;20589;-75
2021/12/26 01:23:05;;;;;;;2.33;1.92;;;;;;;-2.08;48.78;98017.66;3479663;28;20037;-75
2021/12/26 01:24:48;;;;;;;3.58;2.00;;;;;;;-2.07;48.57;98012.28;3490607;28;20066;-76
2021/12/26 01:26:32;;;;;;;2.08;1.33;;;;;;;-2.02;48.81;98012.63;3487782;28;20136;-76
2021/12/26 01:28:13;;;;;;;2.40;1.52;;;;;;;-2.02;48.61;98003.97;3491731;28;20048;-77
2021/12/26 01:29:54;;;;;;;2.03;1.63;;;;;;;-2.02;48.75;97989.13;3491686;28;20503;-77
2021/12/26 01:31:36;;;;;;;2.65;1.83;;;;;;;-1.94;48.90;98001.41;3475420;28;20049;-75
2021/12/26 01:33:29;;;;;;;2.40;1.92;;;;;;;-1.92;48.53;97991.63;3503156;28;20075;-76
2021/12/26 01:35:33;;;;;;;3.10;1.90;;;;;;;-1.90;48.73;97992.28;3488814;28;20466;-76
2021/12/26 01:37:34;;;;;;;3.00;1.92;;;;;;;-1.89;48.90;97991.31;3482620;28;20524;-78
2021/12/26 01:39:33;;;;;;;5.30;1.58;;;;;;;-1.89;48.59;97999.16;3483424;28;20044;-77
2021/12/26 01:41:27;;;;;;;2.17;1.88;;;;;;;-1.92;48.64;97996.84;3494966;28;20040;-76
2021/12/26 01:43:14;;;;;;;2.33;2.13;;;;;;;-1.93;48.95;97995.22;3494564;28;20060;-78
2021/12/26 01:45:10;;;;;;;2.63;1.88;;;;;;;-1.93;48.59;97995.22;3484497;28;20040;-78
2021/12/26 01:47:00;;;;;;;4.25;1.90;;;;;;;-1.92;48.98;97994.25;3467840;28;20464;-79
2021/12/26 01:48:46;;;;;;;1.30;1.23;;;;;;;-1.92;48.87;98004.69;3479288;28;20127;-75
2021/12/26 01:50:28;;;;;;;1.92;1.70;;;;;;;-1.91;48.85;98005.50;3482548;28;20051;-79
2021/12/26 01:52:09;;;;;;;2.53;1.88;;;;;;;-1.89;48.88;98000.94;3482327;28;20079;-76
2021/12/26 01:53:50;;;;;;;1.77;1.65;;;;;;;-1.88;48.79;98005.22;3497948;28;20109;-77
2021/12/26 01:55:40;;;;;;;2.13;1.45;;;;;;;-1.88;48.92;98008.63;3492034;28;20043;-75
2021/12/26 01:57:21;;;;;;;2.20;1.60;;;;;;;-1.88;49.03;98006.03;3493011;28;20044;-77
2021/12/26 01:59:04;;;;;;;4.47;1.98;;;;;;;-1.88;49.23;97972.06;3493185;28;20098;-76
2021/12/26 02:01:06;;;;;;;1.55;1.45;;;;;;;-1.80;49.38;98013.88;3507165;28;20066;-77
2021/12/26 02:02:48;;;;;;;1.75;1.42;;;;;;;-1.82;48.91;97999.34;3493538;28;20041;-76
2021/12/26 02:04:31;;;;;;;2.42;2.00;;;;;;;-1.84;48.91;97999.50;3491935;28;20058;-77
2021/12/26 02:06:12;;;;;;;3.47;1.65;;;;;;;-1.82;49.04;97994.13;3492577;28;20608;-75
2021/12/26 02:08:01;;;;;;;2.38;1.90;;;;;;;-1.80;49.11;97969.50;3493323;28;20044;-75
2021/12/26 02:09:42;;;;;;;2.10;1.52;;;;;;;-1.82;48.76;97988.91;3495767;28;20036;-79
2021/12/26 02:11:24;;;;;;;3.33;2.03;;;;;;;-1.84;49.00;97983.81;3494384;28;20041;-76
2021/12/26 02:13:05;;;;;;;2.80;2.05;;;;;;;-1.83;49.28;97987.28;3490641;28;20037;-76
2021/12/26 02:14:46;;;;;;;2.30;1.80;;;;;;;-1.85;49.04;97994.44;3490017;28;20076;-79
2021/12/26 02:16:49;;;;;;;2.08;1.70;;;;;;;-1.85;49.15;97992.66;3481210;28;20049;-76
2021/12/26 02:18:30;;;;;;;1.75;1.58;;;;;;;-1.87;49.23;97996.38;3481223;28;20052;-76
2021/12/26 02:20:20;;;;;;;3.50;2.10;;;;;;;-1.85;49.14;97971.75;3478313;28;20427;-77
2021/12/26 02:22:10;;;;;;;1.63;1.52;;;;;;;-1.84;49.53;97980.41;3482237;28;20041;-75
2021/12/26 02:24:04;;;;;;;3.35;2.10;;;;;;;-1.81;49.26;97980.91;3493443;28;20051;-77
2021/12/26 02:27:42;;;;;;;2.38;1.88;;;;;;;-1.77;49.28;97982.22;3508756;28;20040;-77
2021/12/26 02:29:24;;;;;;;2.97;1.90;;;;;;;-1.70;49.57;97997.25;3492908;28;20502;-77
2021/12/26 02:31:06;;;;;;;2.13;1.92;;;;;;;-1.70;49.33;97985.03;3503863;28;20036;-77
2021/12/26 02:32:49;;;;;;;1.73;1.63;;;;;;;-1.71;49.33;97974.72;3490276;28;20430;-77
2021/12/26 02:34:31;;;;;;;2.53;1.80;;;;;;;-1.74;49.45;97969.84;3504277;28;20101;-78
2021/12/26 02:36:12;;;;;;;2.28;2.17;;;;;;;-1.71;49.62;97979.94;3488913;28;20083;-76
2021/12/26 02:37:53;;;;;;;2.33;1.70;;;;;;;-1.74;49.66;97967.22;3486569;28;20037;-77
2021/12/26 02:39:35;;;;;;;3.97;1.88;;;;;;;-1.73;49.34;97969.66;3482284;28;20037;-76
2021/12/26 02:41:16;;;;;;;2.28;1.70;;;;;;;-1.71;49.65;97969.50;3481407;28;20048;-76
2021/12/26 02:42:57;;;;;;;3.13;1.60;;;;;;;-1.70;49.53;97978.97;3479532;28;20098;-77
2021/12/26 02:44:38;;;;;;;2.78;2.10;;;;;;;-1.70;49.67;97971.13;3479150;28;20049;-77
2021/12/26 02:46:19;;;;;;;2.67;2.30;;;;;;;-1.69;49.77;97972.78;3488778;28;20040;-76
2021/12/26 02:48:00;;;;;;;1.77;1.33;;;;;;;-1.70;49.49;97961.53;3492125;28;20041;-77
2021/12/26 02:49:41;;;;;;;2.25;1.80;;;;;;;-1.69;49.89;97967.56;3492378;28;20069;-76
2021/12/26 02:51:22;;;;;;;2.40;2.00;;;;;;;-1.76;49.65;97952.53;3491583;28;20046;-78
2021/12/26 02:53:06;;;;;;;2.10;1.90;;;;;;;-1.82;50.02;97947.94;3495923;28;20067;-76
2021/12/26 02:54:47;;;;;;;1.60;1.50;;;;;;;-1.76;49.68;97954.31;3496175;28;20060;-77
2021/12/26 02:56:29;;;;;;;2.60;1.92;;;;;;;-1.73;49.80;97966.22;3490941;28;20142;-77
2021/12/26 02:58:10;;;;;;;2.60;1.92;;;;;;;-1.76;49.92;97963.00;3495052;28;20507;-76
2021/12/26 02:59:51;;;;;;;2.60;2.05;;;;;;;-1.76;49.80;97963.00;3495990;28;20040;-76
2021/12/26 03:01:32;;;;;;;2.30;2.10;;;;;;;-1.76;50.12;97952.53;3494862;28;20045;-77
2021/12/26 03:03:14;;;;;;;1.88;1.77;;;;;;;-1.75;49.96;97966.41;3492496;28;20490;-76
2021/12/26 03:04:56;;;;;;;2.33;1.80;;;;;;;-1.73;49.87;97966.22;3496330;28;20518;-76
2021/12/26 03:08:49;;;;;;;2.05;1.75;;;;;;;-1.81;50.14;97944.38;3486556;28;20149;-76
2021/12/26 03:10:30;;;;;;;2.10;1.95;;;;;;;-1.80;50.54;97964.25;3495805;28;20582;-76
2021/12/26 03:12:11;;;;;;;1.65;1.55;;;;;;;-1.82;50.57;97952.34;3480986;28;20072;-77
2021/12/26 03:13:53;;;;;;;1.70;1.60;;;;;;;-1.81;50.43;97948.75;3490391;28;20078;-77
2021/12/26 03:15:34;;;;;;;4.07;1.50;;;;;;;-1.79;50.22;97947.63;3494937;28;20060;-77
2021/12/26 03:17:15;;;;;;;1.43;1.33;;;;;;;-1.80;50.22;97940.75;3467418;28;20049;-77
2021/12/26 03:18:57;;;;;;;2.92;2.00;;;;;;;-1.77;50.45;97950.06;3486309;28;20380;-76
2021/12/26 03:20:42;;;;;;;1.80;1.67;;;;;;;-1.77;50.69;97937.84;3491974;28;20044;-77
2021/12/26 03:22:26;;;;;;;2.97;1.75;;;;;;;-1.76;50.52;97946.47;3492526;28;20498;-77
2021/12/26 03:24:07;;;;;;;2.10;1.50;;;;;;;-1.78;50.73;97931.00;3495398;28;20040;-78
2021/12/26 03:25:48;;;;;;;3.80;2.00;;;;;;;-1.73;50.72;97925.25;3494543;28;20029;-77
2021/12/26 03:27:29;;;;;;;1.80;1.40;;;;;;;-1.72;50.32;97936.56;3492088;28;20102;-77
2021/12/26 03:29:10;;;;;;;1.40;1.17;;;;;;;-1.73;50.40;97940.13;3480947;28;20044;-77
2021/12/26 03:30:52;;;;;;;2.10;1.75;;;;;;;-1.75;50.46;97955.97;3488979;28;20041;-77
2021/12/26 03:32:33;;;;;;;3.65;2.35;;;;;;;-1.73;50.61;97935.72;3491739;28;20175;-77
2021/12/26 03:34:14;;;;;;;1.77;1.60;;;;;;;-1.78;50.32;97928.38;3495551;28;20491;-77
2021/12/26 03:35:55;;;;;;;4.57;2.42;;;;;;;-1.81;50.78;97933.94;3490444;28;20044;-77
2021/12/26 03:37:37;;;;;;;2.38;2.15;;;;;;;-1.82;50.70;97937.50;3484155;28;20040;-77
2021/12/26 03:39:26;;;;;;;1.88;1.35;;;;;;;-1.87;50.71;97918.88;3481754;28;20052;-78
2021/12/26 03:41:07;;;;;;;3.95;1.90;;;;;;;-1.92;50.61;97928.97;3469537;28;20394;-77
2021/12/26 03:42:52;;;;;;;2.33;1.63;;;;;;;-1.94;51.00;97938.75;3478890;28;20048;-78
2021/12/26 03:44:33;;;;;;;3.42;2.08;;;;;;;-1.90;51.08;97937.47;3487604;28;20068;-77
2021/12/26 03:46:16;;;;;;;1.85;1.45;;;;;;;-1.93;50.73;97944.81;3495997;28;20098;-77
2021/12/26 03:47:57;;;;;;;3.67;1.75;;;;;;;-1.91;50.78;97928.03;3494129;28;20044;-77
2021/12/26 03:49:38;;;;;;;2.60;1.60;;;;;;;-1.88;50.62;97938.13;3494274;28;20576;-77
2021/12/26 03:51:20;;;;;;;5.45;1.65;;;;;;;-1.85;51.13;97929.97;3480170;28;20047;-77
2021/12/26 03:53:02;;;;;;;2.42;1.92;;;;;;;-1.82;50.94;97921.81;3491919;28;20093;-76
2021/12/26 03:54:43;;;;;;;2.13;1.55;;;;;;;-1.79;50.78;97941.56;3494340;28;20045;-78
2021/12/26 03:56:24;;;;;;;2.60;1.52;;;;;;;-1.79;50.71;97941.56;3495497;28;20442;-77
2021/12/26 03:58:20;;;;;;;5.03;1.85;;;;;;;-1.76;50.62;97934.25;3487510;28;20044;-77
2021/12/26 04:00:01;;;;;;;2.00;1.77;;;;;;;-1.74;50.49;97933.28;3480459;28;20119;-77
2021/12/26 04:01:44;;;;;;;3.13;1.90;;;;;;;-1.76;50.40;97941.25;3483999;28;20310;-77
2021/12/26 04:03:25;;;;;;;2.40;2.03;;;;;;;-1.73;50.84;97934.91;3483378;28;20048;-78
2021/12/26 04:05:12;;;;;;;2.78;2.08;;;;;;;-1.70;49.98;97924.97;3498613;28;20068;-78
2021/12/26 04:06:54;;;;;;;2.75;1.90;;;;;;;-1.67;50.18;97918.59;3494282;28;20036;-77
2021/12/26 04:08:35;;;;;;;2.30;1.83;;;;;;;-1.68;50.49;97928.22;3492837;28;20032;-77
2021/12/26 04:10:18;;;;;;;2.53;1.60;;;;;;;-1.70;50.26;97924.97;3494072;28;20066;-77
2021/12/26 04:11:59;;;;;;;;;;;;;;;-1.58;50.30;97928.06;3494444;28;20461;-77
2021/12/26 04:13:40;;;;;;;1.92;1.60;;;;;;;-1.69;50.16;97944.88;3482984;28;19920;-77
2021/12/26 04:15:22;;;;;;;2.42;1.73;;;;;;;-1.74;50.38;97930.66;3492112;28;20040;-76
2021/12/26 04:17:02;;;;;;;;;;;;;;;-1.64;50.15;97937.38;3494391;28;20055;-78
2021/12/26 04:18:43;;;;;;;1.92;1.75;;;;;;;-1.69;50.53;97920.56;3494564;28;19944;-77
2021/12/26 04:20:26;;;;;;;2.20;1.90;;;;;;;-1.66;50.41;97930.69;3479440;28;20044;-78
2021/12/26 04:22:08;;;;;;;1.63;1.52;;;;;;;-1.65;50.43;97929.69;3466486;28;20090;-77
2021/12/26 04:23:49;;;;;;;1.83;1.65;;;;;;;-1.69;50.67;97921.38;3478235;28;20056;-77
2021/12/26 04:25:30;;;;;;;1.83;1.70;;;;;;;-1.66;50.74;97922.84;3488414;28;20086;-77
2021/12/26 04:27:11;;;;;;;1.50;1.40;;;;;;;-1.66;51.05;97922.84;3496650;28;20145;-78
2021/12/26 04:28:51;;;;;;;2.00;1.90;;;;;;;-1.63;50.90;97927.72;3496533;28;20045;-77
2021/12/26 04:30:34;;;;;;;1.73;1.48;;;;;;;-1.66;51.05;97907.16;3496783;28;20664;-77
2021/12/26 04:32:15;;;;;;;1.98;1.73;;;;;;;-1.63;51.33;97909.44;3500745;28;20054;-77
2021/12/26 04:33:56;;;;;;;1.85;1.73;;;;;;;-1.56;50.95;97915.66;3482393;28;20045;-77
2021/12/26 04:35:37;;;;;;;2.95;2.00;;;;;;;-1.52;51.14;97917.00;3477465;28;20082;-76
2021/12/26 04:37:18;;;;;;;2.03;1.83;;;;;;;-1.51;51.15;97908.16;3477236;28;20040;-76
2021/12/26 04:38:59;;;;;;;2.25;1.73;;;;;;;-1.47;50.85;97919.09;3480147;28;20037;-77
2021/12/26 04:40:40;;;;;;;2.10;1.48;;;;;;;-1.67;51.10;97880.25;3466302;28;20045;-77
2021/12/26 04:42:43;;;;;;;3.83;1.83;;;;;;;-1.59;50.99;97890.69;3494824;28;20045;-78
2021/12/26 04:44:44;;;;;;;1.63;1.50;;;;;;;-1.52;50.70;97901.31;3511120;28;20083;-76
2021/12/26 04:46:50;;;;;;;2.17;1.40;;;;;;;-1.47;50.76;97904.28;3460349;28;20107;-78
2021/12/26 04:48:44;;;;;;;1.67;1.33;;;;;;;-1.40;50.84;97907.84;3483070;28;20056;-77
2021/12/26 04:50:27;;;;;;;5.32;1.70;;;;;;;-1.41;50.87;97911.44;3466183;28;20044;-76
2021/12/26 04:52:12;;;;;;;2.45;1.80;;;;;;;-1.41;50.52;97914.06;3470593;28;20407;-77
2021/12/26 04:53:53;;;;;;;2.90;1.55;;;;;;;-1.38;50.57;97925.97;3492002;28;20036;-77
2021/12/26 04:55:34;;;;;;;1.98;1.83;;;;;;;-1.38;50.62;97928.59;3504905;28;20044;-77
2021/12/26 04:57:15;;;;;;;2.92;2.05;;;;;;;-1.37;50.84;97928.44;3505867;28;20127;-75
2021/12/26 04:58:55;;;;;;;2.85;2.10;;;;;;;-1.40;50.75;97918.28;3507365;28;20071;-78
2021/12/26 05:00:37;;;;;;;2.08;1.65;;;;;;;-1.38;51.19;97933.81;3520981;28;20062;-76
2021/12/26 05:02:20;;;;;;;2.70;1.55;;;;;;;-1.39;51.04;97922.56;3497028;28;20036;-77
2021/12/26 05:04:01;;;;;;;2.80;2.20;;;;;;;-1.37;51.34;97928.44;3482202;28;20485;-77
2021/12/26 05:05:44;;;;;;;3.57;2.20;;;;;;;-1.35;51.25;97921.25;3479862;28;20045;-76
2021/12/26 05:07:24;;;;;;;1.38;1.27;;;;;;;-1.32;51.31;97931.38;3503596;28;20036;-77
2021/12/26 05:09:05;;;;;;;2.22;2.03;;;;;;;-1.27;51.32;97937.91;3496058;28;20093;-76
2021/12/26 05:10:46;;;;;;;3.03;1.77;;;;;;;-1.24;51.19;97930.56;3481306;28;20036;-76
2021/12/26 05:12:27;;;;;;;1.73;1.63;;;;;;;-1.24;50.69;97932.34;3493711;28;20511;-76
2021/12/26 05:14:08;;;;;;;1.98;1.25;;;;;;;-1.23;50.67;97947.88;3513914;28;20039;-76
2021/12/26 05:15:49;;;;;;;2.03;1.63;;;;;;;-1.23;50.91;97936.63;3524725;28;20040;-77
2021/12/26 05:17:31;;;;;;;1.58;1.48;;;;;;;-1.19;50.97;97959.66;3522563;28;20027;-76
2021/12/26 05:19:12;;;;;;;1.88;1.45;;;;;;;-1.18;50.66;97942.97;3495742;28;20210;-77
2021/12/26 05:20:53;;;;;;;2.60;1.70;;;;;;;-1.19;50.93;97949.19;3496198;28;20132;-77
2021/12/26 05:22:33;;;;;;;2.05;1.60;;;;;;;-1.13;50.87;97937.28;3507814;28;20101;-76
2021/12/26 05:24:14;;;;;;;1.30;1.25;;;;;;;-1.13;50.79;97938.09;3495670;28;20551;-76
2021/12/26 05:25:56;;;;;;;2.08;1.63;;;;;;;-1.15;50.60;97941.84;3492762;28;20419;-77
2021/12/26 05:27:38;;;;;;;1.90;1.50;;;;;;;-1.13;50.93;97942.50;3480996;28;20037;-77
2021/12/26 05:29:19;;;;;;;1.90;1.63;;;;;;;-1.15;50.93;97932.19;3493838;28;20135;-75
2021/12/26 05:31:00;;;;;;;2.25;1.75;;;;;;;-1.13;51.04;97932.03;3489564;28;20056;-77
2021/12/26 05:32:46;;;;;;;3.10;2.40;;;;;;;-1.13;50.84;97932.03;3479508;28;20053;-77
2021/12/26 05:34:28;;;;;;;2.03;1.80;;;;;;;-1.14;51.22;97936.44;3480339;28;20124;-76
2021/12/26 05:36:09;;;;;;;3.10;2.10;;;;;;;-1.12;50.93;97928.44;3499606;28;20047;-77
2021/12/26 05:37:53;;;;;;;3.80;1.90;;;;;;;-1.16;50.83;97917.50;3505248;28;20040;-77
2021/12/26 05:39:34;;;;;;;2.03;1.93;;;;;;;-1.08;51.29;97918.47;3500725;28;20130;-76
2021/12/26 05:41:14;;;;;;;1.58;1.48;;;;;;;-1.05;51.35;97933.84;3484270;28;20491;-77
2021/12/26 05:43:10;;;;;;;1.70;1.60;;;;;;;-1.04;51.35;97922.38;3480955;28;20049;-77
2021/12/26 05:44:51;;;;;;;2.83;1.55;;;;;;;-1.01;50.93;97930.72;3479077;28;20041;-77
2021/12/26 05:46:31;;;;;;;3.88;1.98;;;;;;;-1.00;51.25;97927.13;3478814;28;20587;-76
2021/12/26 05:48:12;;;;;;;1.98;1.63;;;;;;;-0.99;50.69;97928.75;3479886;28;20114;-78
2021/12/26 05:49:54;;;;;;;3.33;1.85;;;;;;;-1.02;50.87;97926.47;3479316;28;20500;-78
2021/12/26 05:51:35;;;;;;;3.70;2.17;;;;;;;-0.96;50.71;97923.19;3491041;28;20040;-77
2021/12/26 05:53:35;;;;;;;3.30;2.35;;;;;;;-0.98;50.93;97913.88;3510287;28;20151;-77
2021/12/26 05:55:18;;;;;;;3.80;2.00;;;;;;;-0.93;51.29;97922.88;3495740;28;20048;-77
2021/12/26 05:57:03;;;;;;;3.88;3.58;;;;;;;-0.91;50.79;97920.91;3494058;28;20037;-77
2021/12/26 05:58:44;;;;;;;1.98;1.85;;;;;;;-0.89;50.99;97923.34;3494998;28;20059;-77
2021/12/26 06:00:25;;;;;;;1.95;1.50;;;;;;;-0.86;50.80;97920.41;3490113;28;20048;-76
2021/12/26 06:02:12;;;;;;;2.67;1.95;;;;;;;-0.84;50.80;97921.06;3480308;28;20048;-77
2021/12/26 06:03:55;;;;;;;2.08;1.83;;;;;;;-0.81;50.55;97919.91;3486433;28;20040;-77
2021/12/26 06:05:36;;;;;;;1.83;1.60;;;;;;;-0.79;50.99;97912.72;3493180;28;20499;-78
2021/12/26 06:07:17;;;;;;;2.42;1.63;;;;;;;-0.80;50.75;97917.16;3507886;28;20036;-78
2021/12/26 06:08:59;;;;;;;2.03;1.83;;;;;;;-0.85;51.13;97892.44;3496046;28;20077;-78
2021/12/26 06:10:40;;;;;;;1.50;1.40;;;;;;;-0.85;51.01;97908.97;3492819;28;20043;-77
2021/12/26 06:12:21;;;;;;;2.65;1.80;;;;;;;-0.86;51.14;97909.94;3492449;28;20044;-78
2021/12/26 06:14:03;;;;;;;3.75;2.38;;;;;;;-0.86;51.24;97920.41;3487986;28;20047;-78
2021/12/26 06:15:43;;;;;;;1.92;1.73;;;;;;;-0.85;51.10;97905.53;3478834;28;20504;-78
2021/12/26 06:17:24;;;;;;;3.47;1.73;;;;;;;-0.82;51.17;97902.59;3486414;28;20044;-78
2021/12/26 06:19:24;;;;;;;2.00;1.77;;;;;;;-0.84;51.11;97905.38;3506013;28;20391;-78
2021/12/26 06:21:23;;;;;;;3.17;2.05;;;;;;;-0.82;50.94;97903.41;3507626;28;20507;-78
2021/12/26 06:23:39;;;;;;;2.47;1.52;;;;;;;-0.87;50.75;97916.16;3509073;28;20048;-77
2021/12/26 06:25:39;;;;;;;2.65;1.98;;;;;;;-0.91;50.99;97905.22;3509125;28;20047;-77
2021/12/26 06:27:48;;;;;;;3.08;1.98;;;;;;;-0.90;50.68;97912.09;3497620;28;20036;-79
2021/12/26 06:29:47;;;;;;;2.35;1.60;;;;;;;-0.90;50.85;97901.63;3498391;28;20474;-79
2021/12/26 06:31:46;;;;;;;2.38;1.60;;;;;;;-0.85;50.68;97910.75;3496479;28;20048;-77
2021/12/26 06:33:27;;;;;;;4.22;2.42;;;;;;;-0.84;50.70;97912.41;3498419;28;20054;-76
2021/12/26 06:35:26;;;;;;;2.63;1.77;;;;;;;-0.91;50.48;97905.22;3498152;28;20055;-78
2021/12/26 06:37:25;;;;;;;2.65;1.45;;;;;;;-0.94;50.53;97908.16;3517515;28;20032;-77
2021/12/26 06:39:24;;;;;;;4.63;1.70;;;;;;;-0.94;50.72;97889.03;3498027;28;20077;-76
2021/12/26 06:41:43;;;;;;;3.28;1.55;;;;;;;-0.93;50.81;97896.75;3453200;28;20061;-78
2021/12/26 06:43:43;;;;;;;1.77;1.42;;;;;;;-0.91;50.53;97910.44;3439962;28;20050;-76
2021/12/26 06:45:47;;;;;;;3.22;2.00;;;;;;;-0.91;50.78;97920.91;3453142;28;20073;-76
2021/12/26 06:47:49;;;;;;;2.45;2.22;;;;;;;-0.98;50.73;97906.03;3499696;28;20109;-77
2021/12/26 06:49:30;;;;;;;3.13;2.03;;;;;;;-0.93;50.72;97907.19;3511935;28;20043;-78
2021/12/26 06:51:11;;;;;;;2.20;1.65;;;;;;;-0.85;50.74;97893.28;3494958;28;20036;-79
2021/12/26 06:52:52;;;;;;;2.78;2.28;;;;;;;-0.81;50.96;97914.69;3506575;28;20051;-77
2021/12/26 06:54:33;;;;;;;1.67;1.33;;;;;;;-0.84;50.82;97894.91;3495496;28;20076;-79
2021/12/26 06:56:14;;;;;;;2.00;1.58;;;;;;;-0.78;51.11;97911.72;3509549;28;20076;-76
2021/12/26 06:57:54;;;;;;;3.00;1.67;;;;;;;-0.76;50.87;97912.38;3475226;28;20099;-77
2021/12/26 06:59:35;;;;;;;4.18;1.52;;;;;;;-0.76;50.87;97894.06;3479251;28;20124;-76
2021/12/26 07:01:16;;;;;;;3.17;1.73;;;;;;;-0.71;50.53;97910.09;3494392;28;20037;-79
2021/12/26 07:02:57;;;;;;;3.00;2.47;;;;;;;-0.68;50.87;97900.09;3501984;28;20517;-78
2021/12/26 07:04:40;;;;;;;2.58;1.70;;;;;;;-0.65;50.82;97904.19;3485702;28;20045;-78
2021/12/26 07:06:20;;;;;;;1.98;1.65;;;;;;;-0.63;50.48;97904.03;3486045;28;20135;-76
2021/12/26 07:08:02;;;;;;;2.97;2.15;;;;;;;-0.58;50.54;97899.09;3478023;28;20123;-78
2021/12/26 07:09:44;;;;;;;2.88;1.83;;;;;;;-0.58;50.70;97899.09;3478593;28;20088;-77
2021/12/26 07:11:28;;;;;;;3.15;2.20;;;;;;;-0.59;50.68;97898.28;3495195;28;20044;-77
2021/12/26 07:13:10;;;;;;;3.38;1.75;;;;;;;-0.54;50.39;97901.22;3469946;28;20048;-76
2021/12/26 07:14:52;;;;;;;4.47;2.20;;;;;;;-0.57;50.35;97883.22;3503777;28;20037;-78
2021/12/26 07:16:33;;;;;;;1.80;1.65;;;;;;;-0.51;50.50;97877.34;3477522;28;20090;-75
2021/12/26 07:18:14;;;;;;;4.88;2.20;;;;;;;-0.46;50.57;97898.56;3516258;28;20039;-77
2021/12/26 07:19:57;;;;;;;4.38;2.20;;;;;;;-0.47;50.24;97902.16;3506758;28;20139;-76
2021/12/26 07:22:00;;;;;;;1.75;1.65;;;;;;;-0.45;50.04;97909.84;3483560;28;20044;-76
2021/12/26 07:23:41;;;;;;;3.00;1.88;;;;;;;-0.45;50.18;97902.81;3467005;28;20044;-73
2021/12/26 07:25:28;;;;;;;1.90;1.65;;;;;;;-0.41;50.43;97895.47;3485144;28;20045;-74
2021/12/26 07:27:11;;;;;;;2.00;1.80;;;;;;;-0.38;50.12;97894.31;3469913;28;20123;-73
2021/12/26 07:29:23;;;;;;;2.60;1.65;;;;;;;-0.32;49.95;97885.75;3457164;28;20052;-72
2021/12/26 07:31:05;;;;;;;2.65;1.45;;;;;;;-0.29;50.36;97893.28;3483223;28;20466;-78
2021/12/26 07:32:47;;;;;;;2.40;2.20;;;;;;;-0.29;50.30;97894.09;3494240;28;20061;-78
2021/12/26 07:34:27;;;;;;;2.83;1.95;;;;;;;-0.34;50.25;97887.72;3494033;28;20552;-75
2021/12/26 07:36:08;;;;;;;1.85;1.45;;;;;;;-0.34;49.92;97898.19;3489941;28;20049;-72
2021/12/26 07:38:00;;;;;;;1.77;1.67;;;;;;;-0.37;50.23;97881.03;3482368;28;20102;-75
2021/12/26 07:39:41;;;;;;;2.83;1.92;;;;;;;-0.33;50.06;97886.75;3480439;28;20626;-74
2021/12/26 07:41:22;;;;;;;10.95;2.08;;;;;;;-0.28;50.04;97913.25;3480336;28;20204;-74
2021/12/26 07:43:03;;;;;;;3.05;1.83;;;;;;;-0.25;49.81;97889.34;3468319;28;20049;-72
2021/12/26 07:45:04;;;;;;;2.63;1.60;;;;;;;-0.21;49.94;97888.00;3510882;28;20051;-73
2021/12/26 07:47:01;;;;;;;3.42;1.73;;;;;;;-0.16;49.92;97895.34;3496567;28;20041;-72
2021/12/26 07:48:44;;;;;;;3.38;1.90;;;;;;;-0.20;49.68;97887.03;3493901;28;20036;-73
2021/12/26 07:50:32;;;;;;;2.80;2.10;;;;;;;-0.14;50.04;97896.00;3509729;28;20598;-74
2021/12/26 07:52:36;;;;;;;3.28;1.50;;;;;;;-0.10;49.62;97898.13;3496615;28;20424;-73
2021/12/26 07:54:36;;;;;;;2.60;1.50;;;;;;;-0.07;49.67;97886.47;3497664;28;20052;-72
2021/12/26 07:56:35;;;;;;;3.80;1.67;;;;;;;-0.02;49.54;97887.59;3509719;28;20367;-81
2021/12/26 07:58:35;;;;;;;5.88;2.20;;;;;;;0.06;49.66;97885.94;3512043;28;20086;-78
2021/12/26 08:00:42;;;;;;;2.65;1.83;;;;;;;0.13;49.60;97881.59;3472718;28;20051;-76
2021/12/26 08:02:38;;;;;;;1.65;1.55;;;;;;;0.13;49.54;97887.69;3482259;28;20874;-75
2021/12/26 08:04:37;;;;;;;2.92;1.40;;;;;;;0.16;49.22;97886.53;3482488;28;20037;-79
2021/12/26 08:06:41;;;;;;;2.20;1.92;;;;;;;0.18;49.22;97871.44;3496467;28;20036;-75
2021/12/26 08:08:22;;;;;;;2.67;1.90;;;;;;;0.21;49.30;97878.97;3493699;28;20425;-78
2021/12/26 08:10:04;;;;;;;1.55;1.40;;;;;;;0.24;49.56;97878.59;3492753;28;20547;-79
2021/12/26 08:11:44;;;;;;;3.13;2.83;;;;;;;0.29;49.56;97880.72;3490231;28;20037;-75
2021/12/26 08:13:27;;;;;;;2.28;1.70;;;;;;;0.32;49.90;97881.16;3508853;28;20445;-77
2021/12/26 08:15:08;;;;;;;1.70;1.52;;;;;;;0.33;49.53;97880.16;3496611;28;20044;-75
2021/12/26 08:16:49;;;;;;;3.10;1.92;;;;;;;0.34;49.35;97876.59;3493617;28;20485;-75
2021/12/26 08:18:29;;;;;;;4.93;1.70;;;;;;;0.31;49.55;97879.56;3508063;28;20028;-77
2021/12/26 08:20:10;;;;;;;2.60;1.88;;;;;;;0.33;49.60;97882.78;3511817;28;20040;-78